Norfolk Ns (Chambers Fld) Airport Norfolk US
ICAO: KNGU
IATA: NGU
Category: Medium
Scheduled Services: No

Elevation: 17 ft
TransAlt. 18000 ft.

Airport Communications:
APP:118.9
ATIS:118.425
CLNC DEL:120.7
DEP:125.2
NAVYNORFOLK HELI GND:29.895
CHAMBERS GND:121.8
AMC/ATOC:130.65
NAVYNORFOLK HELI TWR:126.375
BASE OPS:126.375
METRO:27.16
CHAMBERS TWR:124.3

KNGU Zoom In..

Runways:

(A) RW 10 length 8371 ft width 200 ft
ILS 108.95 / hdg 100

(B) RW 28 length 8371 ft width 200 ft
---- / hdg 280

Location; KNGU
Day. 20 / Time. 19.59 Zulu
* Altimeter: 30.07
* Temperature: 28° c. 82.4°f.
* Wind from: 080° Speed 13 kn.
Dewpoint: 16° c.
Visibility: 10 Statute Miles.
Clouds: Few 5000 ft.
Clouds: Scattered 26000 ft.
Clouds: Scattered 3000 ft.

KNGU 201959Z 08013KT 10SM FEW050 SCT260 SCT300 28/16 A3007 RMK AO2 SLP181 NMRS ACFT TRAILS ABV FL250 T02830161


Wind From 080°
Speed 13 kn.

 
 
jpsmedia.com for Web Design worldairports.se 2018   terms of use